Portada
METAR-TAF:

METAR-TAF

Aeroports :

Mae Hong Son, Tailàndia

latitud: 19-18N, longitud: 097-50E, altitud: 267 m

Observació

L'informe es va fer fa 59 minuts, a les 01:00 UTC
Vent calma
Temperatura 26°C
Humitat 89%
Pressió 1004 hPa
Visibilitat: 3500 m
Escasses núvols a una alçada de 1200 ft
Cel ennuvolat a una alçada de 2500 ft
boirina

METAR: VTCH 050100Z 00000KT 3500 BR FEW012 BKN025 26/24 Q1004 NOSIG

Hora: 08:59 (01:59 UTC)

Pronòstic

L'informe es va fer fa 2 hores i 59 minuts, a les 23:00 UTC
Pronòstic vàlid del 05 a les 00 UTC al 05 a les 24 UTC
Vent 5 kt del Sud/Sud-Oest
Visibilitat 10 km o més
Cel ennuvolat a una alçada de 2500 ft
Temporalment
l' 05 a les 06 UTC al 05 a les 12 UTC
Vent 15 kt del Sud-Oest amb ràfegues de 30 kt
Visibilitat: 4000 m
Escasses núvols a una alçada de 1800 ft, Cumulonimbus.
Cel ennuvolat a una alçada de 2500 ft
tempesta, pluja

TAF: VTCH 042300Z 0500/0524 20005KT 9999 BKN025 TEMPO 0506/0512 22015G30KT 4000 TSRA FEW018CB BKN025

Observacions i pronòstics meteorològics de més de 4000 aeroports (METAR i TAF).

Les estacions disponibles són els punts grocs i vermells al mapa.

Posi el ratolí al punt desitjat per veure el nom de l'estació.

Feu clic per veure les observacions i els pronòstics meteorològics.

Per canviar el mapa: feu clic els botons verds amb una creu de color negre per apropar; al botó verd amb un guió per allunyar la imatge; o en les fletxes verdes per a mapes adjacents.


METAR-TAF: